createdAt,value
2018-06-18T00:00:18.210Z,2.70
2018-06-18T00:01:22.796Z,2.95
2018-06-18T00:02:27.299Z,2.50
2018-06-18T00:03:31.606Z,2.45
2018-06-18T00:04:36.254Z,2.62
2018-06-18T00:05:41.130Z,3.17
2018-06-18T00:06:46.056Z,2.55
2018-06-18T00:07:50.885Z,2.87
2018-06-18T00:08:55.404Z,3.05
2018-06-18T00:10:00.269Z,3.02
2018-06-18T00:11:04.538Z,2.17
2018-06-18T00:12:08.896Z,2.58
2018-06-18T00:13:13.633Z,3.30
2018-06-18T00:14:17.901Z,3.05
2018-06-18T00:15:22.461Z,2.65
2018-06-18T00:16:27.302Z,2.60
2018-06-18T00:17:32.916Z,2.65
2018-06-18T00:18:37.184Z,2.60
2018-06-18T00:19:41.527Z,2.87
2018-06-18T00:20:46.751Z,3.22
2018-06-18T00:21:51.323Z,2.77
2018-06-18T00:22:55.607Z,2.33
2018-06-18T00:23:59.860Z,2.85
2018-06-18T00:25:04.220Z,2.55
2018-06-18T00:26:08.471Z,2.90
2018-06-18T00:27:12.737Z,2.85
2018-06-18T00:28:17.628Z,2.52
2018-06-18T00:29:22.320Z,2.60
2018-06-18T00:30:26.605Z,2.33
2018-06-18T00:31:30.922Z,2.77
2018-06-18T00:32:35.164Z,3.10
2018-06-18T00:33:39.439Z,2.90
2018-06-18T00:34:44.496Z,3.40
2018-06-18T00:35:48.859Z,3.22
2018-06-18T00:36:53.489Z,2.85
2018-06-18T00:37:57.777Z,2.70
2018-06-18T00:39:02.075Z,3.17
2018-06-18T00:40:06.842Z,3.15
2018-06-18T00:41:11.401Z,2.85
2018-06-18T00:42:15.837Z,2.75
2018-06-18T00:43:20.260Z,2.60
2018-06-18T00:44:24.864Z,2.45
2018-06-18T00:45:31.332Z,3.20
2018-06-18T00:46:36.100Z,3.52
2018-06-18T00:47:40.524Z,3.72
2018-06-18T00:48:44.885Z,2.80
2018-06-18T00:49:49.663Z,2.70
2018-06-18T00:50:53.982Z,2.95
2018-06-18T00:51:58.678Z,3.20
2018-06-18T00:53:03.329Z,3.85
2018-06-18T00:54:07.698Z,4.40
2018-06-18T00:55:17.752Z,3.00
2018-06-18T00:56:22.250Z,2.67
2018-06-18T00:57:26.560Z,3.30
2018-06-18T00:58:31.438Z,3.52
2018-06-18T00:59:35.696Z,2.60
2018-06-18T01:00:40.959Z,4.05
2018-06-18T01:01:46.805Z,2.75
2018-06-18T01:02:55.176Z,2.70
2018-06-18T01:03:59.817Z,2.42
2018-06-18T01:05:04.193Z,3.40
2018-06-18T01:06:08.711Z,2.75
2018-06-18T01:07:13.061Z,3.15
2018-06-18T01:08:17.537Z,3.50
2018-06-18T01:09:21.872Z,4.00
2018-06-18T01:10:26.185Z,3.02
2018-06-18T01:11:30.586Z,2.75
2018-06-18T01:12:34.837Z,3.47
2018-06-18T01:13:39.870Z,3.75
2018-06-18T01:14:44.220Z,3.65
2018-06-18T01:15:48.483Z,3.75
2018-06-18T01:16:52.850Z,3.55
2018-06-18T01:17:58.850Z,3.30
2018-06-18T01:19:03.649Z,3.60
2018-06-18T01:20:08.072Z,4.28
2018-06-18T01:21:13.110Z,5.62
2018-06-18T01:22:17.638Z,4.67
2018-06-18T01:24:31.874Z,3.87
2018-06-18T01:25:38.590Z,5.53
2018-06-18T01:26:43.266Z,4.30
2018-06-18T01:27:47.703Z,4.70
2018-06-18T01:28:54.110Z,4.72
2018-06-18T01:29:58.482Z,4.90
2018-06-18T01:31:02.717Z,4.62
2018-06-18T01:32:07.463Z,4.65
2018-06-18T01:33:11.906Z,4.00
2018-06-18T01:34:23.081Z,3.80
2018-06-18T01:35:27.700Z,3.40
2018-06-18T01:36:32.354Z,3.75
2018-06-18T01:37:36.863Z,4.00
2018-06-18T01:38:41.652Z,3.83
2018-06-18T01:39:47.525Z,2.80
2018-06-18T01:40:51.881Z,3.40
2018-06-18T01:41:56.671Z,2.83
2018-06-18T01:43:01.536Z,3.05
2018-06-18T01:44:05.425Z,2.85
2018-06-18T01:45:09.781Z,3.08
2018-06-18T01:46:14.236Z,2.52
2018-06-18T01:47:18.714Z,3.47
2018-06-18T01:48:23.212Z,2.90
2018-06-18T01:49:27.582Z,3.00
2018-06-18T01:50:32.510Z,3.25
2018-06-18T01:51:37.361Z,2.55
2018-06-18T01:52:41.902Z,2.27
2018-06-18T01:53:46.444Z,2.70
2018-06-18T01:54:50.842Z,2.85
2018-06-18T01:55:55.314Z,2.42
2018-06-18T01:57:00.602Z,2.95
2018-06-18T01:58:05.466Z,3.30
2018-06-18T01:59:10.170Z,3.90
2018-06-18T02:02:11.567Z,3.65
2018-06-18T02:03:16.455Z,3.10
2018-06-18T02:04:21.020Z,3.25
2018-06-18T02:05:25.892Z,5.62
2018-06-18T02:06:30.236Z,4.65
2018-06-18T02:07:35.625Z,4.83
2018-06-18T02:08:40.407Z,4.75
2018-06-18T02:09:44.742Z,4.05
2018-06-18T02:10:49.522Z,4.08
2018-06-18T02:11:54.518Z,3.77
2018-06-18T02:13:03.373Z,3.20
2018-06-18T02:14:08.159Z,4.00
2018-06-18T02:15:12.629Z,3.60
2018-06-18T02:16:17.117Z,3.40
2018-06-18T02:17:21.875Z,3.47
2018-06-18T02:18:26.408Z,3.75
2018-06-18T02:19:31.116Z,4.37
2018-06-18T02:20:35.471Z,3.42
2018-06-18T02:21:40.442Z,3.35
2018-06-18T02:22:45.055Z,3.60
2018-06-18T02:23:49.660Z,4.35
2018-06-18T02:24:55.820Z,3.90
2018-06-18T02:26:00.130Z,5.10
2018-06-18T02:27:09.795Z,3.55
2018-06-18T02:28:19.142Z,3.08
2018-06-18T02:29:29.021Z,3.33
2018-06-18T02:30:38.598Z,3.40
2018-06-18T02:31:49.046Z,2.62
2018-06-18T02:32:58.433Z,3.15
2018-06-18T02:34:08.071Z,3.20
2018-06-18T02:35:17.486Z,3.05
2018-06-18T02:36:27.177Z,3.70
2018-06-18T02:37:36.860Z,3.67
2018-06-18T02:38:46.637Z,2.95
2018-06-18T02:39:56.471Z,2.92
2018-06-18T02:41:01.338Z,3.65
2018-06-18T02:42:06.174Z,3.37
2018-06-18T02:43:10.603Z,3.42
2018-06-18T02:44:15.544Z,2.75
2018-06-18T02:45:20.951Z,3.15
2018-06-18T02:46:25.760Z,2.65
2018-06-18T02:47:30.186Z,3.87
2018-06-18T02:48:34.942Z,3.22
2018-06-18T02:49:39.402Z,3.10
2018-06-18T02:50:44.171Z,4.08
2018-06-18T02:51:48.707Z,2.90
2018-06-18T02:52:53.149Z,3.50
2018-06-18T02:53:57.663Z,3.90
2018-06-18T02:55:02.495Z,3.02
2018-06-18T02:56:08.230Z,4.10
2018-06-18T02:57:13.404Z,3.33
2018-06-18T02:58:17.841Z,2.80
2018-06-18T02:59:22.543Z,3.83
2018-06-18T03:00:27.163Z,4.22
2018-06-18T03:01:32.590Z,3.45
2018-06-18T03:02:37.670Z,3.35
2018-06-18T03:03:43.711Z,3.30
2018-06-18T03:04:49.431Z,3.20
2018-06-18T03:05:54.169Z,3.10
2018-06-18T03:07:00.176Z,3.92
2018-06-18T03:08:04.581Z,4.10
2018-06-18T03:09:11.539Z,3.30
2018-06-18T03:10:15.950Z,2.70
2018-06-18T03:11:20.870Z,4.40
2018-06-18T03:12:25.584Z,4.03
2018-06-18T03:13:29.944Z,4.90
2018-06-18T03:14:34.463Z,3.92
2018-06-18T03:15:39.130Z,4.33
2018-06-18T03:16:43.539Z,4.55
2018-06-18T03:17:48.252Z,4.00
2018-06-18T03:18:57.662Z,4.35
2018-06-18T03:20:06.845Z,3.40
2018-06-18T03:21:16.479Z,4.00
2018-06-18T03:22:25.969Z,3.50
2018-06-18T03:23:35.858Z,3.67
2018-06-18T03:24:45.250Z,3.90
2018-06-18T03:25:54.602Z,4.33
2018-06-18T03:27:03.897Z,4.12
2018-06-18T03:28:13.359Z,3.70
2018-06-18T03:29:20.339Z,6.50
2018-06-18T03:30:25.501Z,4.30
2018-06-18T03:31:30.128Z,4.37
2018-06-18T03:32:34.855Z,5.75
2018-06-18T03:33:39.322Z,4.45
2018-06-18T03:34:44.007Z,4.67
2018-06-18T03:35:48.462Z,5.78
2018-06-18T03:36:52.955Z,4.67
2018-06-18T03:37:58.131Z,5.25
2018-06-18T03:39:03.201Z,5.45
2018-06-18T03:40:08.122Z,4.72
2018-06-18T03:41:12.646Z,4.35
2018-06-18T03:42:17.514Z,4.15
2018-06-18T03:43:21.978Z,5.05
2018-06-18T03:44:40.004Z,4.30
2018-06-18T03:45:44.369Z,4.78
2018-06-18T03:46:48.826Z,4.45
2018-06-18T03:47:53.635Z,4.40
2018-06-18T03:48:58.348Z,4.30
2018-06-18T03:50:02.770Z,3.62
2018-06-18T03:51:07.522Z,6.20
2018-06-18T03:52:12.420Z,4.53
2018-06-18T03:53:17.149Z,4.53
2018-06-18T03:54:21.992Z,4.72
2018-06-18T03:56:03.174Z,4.53
2018-06-18T03:57:10.795Z,3.45
2018-06-18T03:58:15.857Z,3.75
2018-06-18T03:59:23.244Z,4.65
2018-06-18T04:00:34.282Z,4.50
2018-06-18T04:01:51.051Z,4.03
2018-06-18T04:03:03.769Z,4.47
2018-06-18T04:04:14.557Z,3.55
2018-06-18T04:05:25.202Z,5.12
2018-06-18T04:06:35.044Z,4.17
2018-06-18T04:07:46.063Z,4.75
2018-06-18T04:10:59.442Z,3.95
2018-06-18T04:12:05.318Z,5.00
2018-06-18T04:13:09.926Z,4.60
2018-06-18T04:14:14.308Z,4.17
2018-06-18T04:15:18.640Z,4.65
2018-06-18T04:16:23.011Z,4.45
2018-06-18T04:17:27.492Z,4.90
2018-06-18T04:18:32.048Z,4.92
2018-06-18T04:19:36.482Z,4.70
2018-06-18T04:20:49.954Z,6.72
2018-06-18T04:21:54.421Z,4.70
2018-06-18T04:23:00.275Z,4.40
2018-06-18T04:24:04.912Z,4.65
2018-06-18T04:25:09.742Z,4.83
2018-06-18T04:26:14.769Z,3.90
2018-06-18T04:27:19.446Z,6.00
2018-06-18T04:28:24.494Z,4.55
2018-06-18T04:29:30.740Z,4.20
2018-06-18T04:30:38.118Z,4.78
2018-06-18T04:31:42.975Z,4.28
2018-06-18T04:32:47.347Z,4.00
2018-06-18T04:33:58.406Z,4.12
2018-06-18T04:35:04.702Z,5.35
2018-06-18T04:36:09.379Z,5.75
2018-06-18T04:37:13.952Z,5.10
2018-06-18T04:38:18.787Z,3.90
2018-06-18T04:39:23.538Z,4.90
2018-06-18T04:40:28.283Z,3.37
2018-06-18T04:41:32.711Z,5.97
2018-06-18T04:42:42.067Z,6.15
2018-06-18T04:43:51.517Z,4.05
2018-06-18T04:45:01.101Z,4.22
2018-06-18T04:48:15.093Z,4.00
2018-06-18T04:49:24.721Z,4.08
2018-06-18T04:50:34.103Z,4.05
2018-06-18T04:51:40.162Z,3.85
2018-06-18T04:52:45.283Z,5.17
2018-06-18T04:53:49.732Z,4.47
2018-06-18T04:54:54.127Z,4.80
2018-06-18T04:55:58.688Z,3.95
2018-06-18T04:57:03.927Z,4.00
2018-06-18T04:58:08.800Z,4.10
2018-06-18T04:59:13.312Z,3.67
2018-06-18T05:00:29.311Z,3.85
2018-06-18T05:01:34.075Z,4.75
2018-06-18T05:02:38.863Z,3.62
2018-06-18T05:03:43.935Z,5.25
2018-06-18T05:04:48.853Z,4.40
2018-06-18T05:05:53.740Z,4.78
2018-06-18T05:06:59.244Z,3.98
2018-06-18T05:10:16.082Z,4.45
2018-06-18T05:11:21.484Z,4.90
2018-06-18T05:12:26.616Z,4.22
2018-06-18T05:13:31.149Z,3.83
2018-06-18T05:14:36.195Z,3.35
2018-06-18T05:15:41.809Z,4.00
2018-06-18T05:16:46.671Z,3.80
2018-06-18T05:17:51.106Z,3.62
2018-06-18T05:18:55.686Z,4.25
2018-06-18T05:20:00.172Z,4.40
2018-06-18T05:21:05.185Z,5.53
2018-06-18T05:22:10.614Z,4.55
2018-06-18T05:23:19.065Z,3.70
2018-06-18T05:24:24.555Z,6.10
2018-06-18T05:25:29.149Z,7.22
2018-06-18T05:26:34.875Z,4.40
2018-06-18T05:27:39.344Z,3.33
2018-06-18T05:28:44.646Z,3.17
2018-06-18T05:29:49.403Z,4.08
2018-06-18T05:30:55.436Z,4.62
2018-06-18T05:32:01.820Z,3.47
2018-06-18T05:33:08.249Z,3.98
2018-06-18T05:34:14.126Z,4.90
2018-06-18T05:35:19.626Z,4.03
2018-06-18T05:36:25.102Z,3.42
2018-06-18T05:37:48.415Z,5.20
2018-06-18T05:38:53.336Z,3.87
2018-06-18T05:39:57.721Z,4.00
2018-06-18T05:41:02.363Z,3.80
2018-06-18T05:42:07.165Z,3.70
2018-06-18T05:43:11.989Z,4.50
2018-06-18T05:44:16.836Z,3.83
2018-06-18T05:45:21.388Z,4.90
2018-06-18T05:46:29.436Z,4.08
2018-06-18T05:47:33.823Z,3.47
2018-06-18T05:48:38.725Z,3.87
2018-06-18T05:49:43.466Z,3.62
2018-06-18T05:50:47.974Z,4.87
2018-06-18T05:51:52.403Z,4.50
2018-06-18T05:52:59.852Z,3.62
2018-06-18T05:54:06.446Z,5.40
2018-06-18T05:55:11.004Z,4.65
2018-06-18T05:56:15.746Z,4.00
2018-06-18T05:57:20.167Z,4.28
2018-06-18T05:58:25.390Z,4.08
2018-06-18T05:59:31.033Z,4.33
2018-06-18T06:00:35.876Z,3.52
2018-06-18T06:01:52.317Z,3.62
2018-06-18T06:02:56.824Z,3.60
2018-06-18T06:04:01.266Z,3.95
2018-06-18T06:05:07.931Z,4.22
2018-06-18T06:06:13.749Z,3.87
2018-06-18T06:07:19.074Z,4.35
2018-06-18T06:08:23.541Z,3.85
2018-06-18T06:09:28.305Z,5.10
2018-06-18T06:10:33.145Z,4.12
2018-06-18T06:11:39.517Z,3.87
2018-06-18T06:12:43.936Z,3.83
2018-06-18T06:13:48.296Z,3.62
2018-06-18T06:14:52.743Z,3.58
2018-06-18T06:15:57.946Z,4.90
2018-06-18T06:17:02.391Z,3.17
2018-06-18T06:18:07.392Z,3.30
2018-06-18T06:19:12.171Z,4.20
2018-06-18T06:20:16.661Z,3.70
2018-06-18T06:21:21.895Z,3.17
2018-06-18T06:22:26.455Z,3.90
2018-06-18T06:23:31.615Z,3.12
2018-06-18T06:24:36.332Z,3.72
2018-06-18T06:25:40.847Z,2.90
2018-06-18T06:26:45.256Z,5.42
2018-06-18T06:27:50.305Z,4.25
2018-06-18T06:28:54.749Z,6.47
2018-06-18T06:29:59.215Z,4.40
2018-06-18T06:31:04.405Z,3.35
2018-06-18T06:32:09.732Z,4.92
2018-06-18T06:33:14.215Z,3.62
2018-06-18T06:34:21.708Z,3.55
2018-06-18T06:35:32.814Z,4.85
2018-06-18T06:36:37.258Z,3.75
2018-06-18T06:37:42.488Z,3.70
2018-06-18T06:38:46.934Z,7.75
2018-06-18T06:39:51.360Z,3.47
2018-06-18T06:40:59.366Z,3.27
2018-06-18T06:42:10.905Z,3.00
2018-06-18T06:43:15.429Z,3.35
2018-06-18T06:44:20.265Z,3.50
2018-06-18T06:45:30.733Z,3.90
2018-06-18T06:46:35.245Z,3.90
2018-06-18T06:47:39.935Z,4.22
2018-06-18T06:48:44.657Z,3.98
2018-06-18T06:49:49.663Z,3.45
2018-06-18T06:50:54.653Z,5.05
2018-06-18T06:51:59.446Z,3.52
2018-06-18T06:53:03.862Z,3.65
2018-06-18T06:54:08.361Z,3.65
2018-06-18T06:55:13.448Z,3.77
2018-06-18T06:56:18.488Z,3.65
2018-06-18T06:57:24.362Z,3.95
2018-06-18T06:58:28.750Z,3.02
2018-06-18T06:59:33.271Z,3.50
2018-06-18T07:00:39.825Z,3.77
2018-06-18T07:01:44.987Z,3.25
2018-06-18T07:02:50.419Z,3.15
2018-06-18T07:03:55.075Z,3.40
2018-06-18T07:04:59.545Z,4.28
2018-06-18T07:06:04.025Z,3.85
2018-06-18T07:07:08.783Z,3.95
2018-06-18T07:08:13.317Z,3.98
2018-06-18T07:09:19.236Z,3.62
2018-06-18T07:10:24.301Z,3.80
2018-06-18T07:11:29.145Z,4.05
2018-06-18T07:12:33.721Z,3.55
2018-06-18T07:13:38.684Z,3.02
2018-06-18T07:14:46.035Z,3.98
2018-06-18T07:15:50.580Z,3.12
2018-06-18T07:16:55.037Z,3.42
2018-06-18T07:18:00.176Z,3.47
2018-06-18T07:19:06.528Z,3.10
2018-06-18T07:20:11.080Z,3.55
2018-06-18T07:21:45.832Z,3.33
2018-06-18T07:22:50.751Z,2.98
2018-06-18T07:23:55.380Z,2.42
2018-06-18T07:25:00.296Z,3.10
2018-06-18T07:26:05.138Z,2.75
2018-06-18T07:27:12.337Z,4.08
2018-06-18T07:28:17.076Z,3.40
2018-06-18T07:29:23.947Z,3.05
2018-06-18T07:30:28.636Z,5.75
2018-06-18T07:31:34.679Z,5.45
2018-06-18T07:32:39.305Z,4.00
2018-06-18T07:33:44.834Z,3.83
2018-06-18T07:34:49.323Z,2.70
2018-06-18T07:35:53.856Z,3.08
2018-06-18T07:36:59.488Z,2.67
2018-06-18T07:38:03.961Z,3.40
2018-06-18T07:39:08.767Z,3.52
2018-06-18T07:40:13.520Z,2.85
2018-06-18T07:41:18.366Z,3.70
2018-06-18T07:42:22.889Z,4.47
2018-06-18T07:43:28.344Z,3.20
2018-06-18T07:44:32.960Z,3.17
2018-06-18T07:45:37.512Z,3.67
2018-06-18T07:46:42.255Z,3.15
2018-06-18T07:47:46.776Z,3.55
2018-06-18T07:48:51.636Z,2.77
2018-06-18T07:49:56.142Z,3.30
2018-06-18T07:51:00.833Z,3.17
2018-06-18T07:52:05.408Z,3.30
2018-06-18T07:53:10.340Z,2.75
2018-06-18T07:54:14.886Z,2.98
2018-06-18T07:55:21.026Z,3.52
2018-06-18T07:56:26.989Z,2.85
2018-06-18T07:57:32.955Z,3.02
2018-06-18T07:58:37.706Z,2.55
2018-06-18T07:59:42.496Z,2.80
2018-06-18T08:00:46.983Z,2.55
2018-06-18T08:01:51.712Z,3.40
2018-06-18T08:02:56.070Z,2.90
2018-06-18T08:04:00.572Z,2.80
2018-06-18T08:05:07.904Z,2.98
2018-06-18T08:06:13.225Z,2.58
2018-06-18T08:07:19.054Z,3.60
2018-06-18T08:08:23.633Z,3.60
2018-06-18T08:09:29.244Z,3.35
2018-06-18T08:10:33.863Z,3.35
2018-06-18T08:11:39.235Z,4.00
2018-06-18T08:12:43.739Z,3.33
2018-06-18T08:13:48.265Z,4.12
2018-06-18T08:14:52.735Z,3.85
2018-06-18T08:15:57.273Z,4.67
2018-06-18T08:17:03.923Z,5.22
2018-06-18T08:18:08.391Z,3.55
2018-06-18T08:19:12.921Z,4.00
2018-06-18T08:20:19.034Z,2.90
2018-06-18T08:21:24.015Z,3.90
2018-06-18T08:22:28.926Z,2.80
2018-06-18T08:23:34.115Z,3.47
2018-06-18T08:24:39.579Z,2.80
2018-06-18T08:25:56.757Z,3.22
2018-06-18T08:27:03.953Z,3.10
2018-06-18T08:28:15.753Z,2.50
2018-06-18T08:29:35.395Z,2.65
2018-06-18T08:30:42.334Z,2.58
2018-06-18T08:31:49.123Z,2.90
2018-06-18T08:32:54.643Z,2.67
2018-06-18T08:34:09.755Z,3.55
2018-06-18T08:35:16.462Z,3.50
2018-06-18T08:36:36.373Z,3.35
2018-06-18T08:37:47.664Z,3.80
2018-06-18T08:39:06.369Z,2.70
2018-06-18T08:40:37.273Z,3.60
2018-06-18T08:42:08.924Z,2.95
2018-06-18T08:43:27.843Z,3.27
2018-06-18T08:44:33.128Z,2.50
2018-06-18T08:45:37.759Z,3.52
2018-06-18T08:46:42.662Z,2.72
2018-06-18T08:47:48.534Z,2.85
2018-06-18T08:48:58.938Z,2.98
2018-06-18T08:50:10.068Z,3.92
2018-06-18T08:51:20.439Z,3.05
2018-06-18T08:52:30.312Z,2.75
2018-06-18T08:53:44.537Z,3.10
2018-06-18T08:54:54.155Z,3.85
2018-06-18T08:56:04.114Z,3.22
2018-06-18T08:57:13.741Z,2.58
2018-06-18T08:58:24.727Z,4.58
2018-06-18T08:59:35.052Z,3.00
2018-06-18T09:01:46.370Z,2.70
2018-06-18T09:02:59.447Z,2.67
2018-06-18T09:04:07.427Z,2.60
2018-06-18T09:05:13.293Z,2.75
2018-06-18T09:06:19.076Z,3.77
2018-06-18T09:07:31.123Z,3.00
2018-06-18T09:08:36.127Z,2.40
2018-06-18T09:09:40.633Z,3.58
2018-06-18T09:10:46.448Z,2.60
2018-06-18T09:11:51.266Z,3.40
2018-06-18T09:12:57.256Z,2.67
2018-06-18T09:14:02.594Z,2.62
2018-06-18T09:15:08.165Z,2.85
2018-06-18T09:16:12.768Z,3.45
2018-06-18T09:17:17.490Z,3.30
2018-06-18T09:18:22.230Z,3.08
2018-06-18T09:19:26.901Z,2.60
2018-06-18T09:20:31.515Z,2.90
2018-06-18T09:21:36.963Z,2.80
2018-06-18T09:22:42.938Z,3.02
2018-06-18T09:23:48.772Z,2.60
2018-06-18T09:24:55.157Z,3.42
2018-06-18T09:26:00.624Z,3.67
2018-06-18T09:27:11.784Z,2.85
2018-06-18T09:28:16.927Z,3.08
2018-06-18T09:29:22.599Z,3.45
2018-06-18T09:30:29.360Z,2.65
2018-06-18T09:31:33.925Z,4.10
2018-06-18T09:32:39.652Z,4.20
2018-06-18T09:33:44.896Z,3.47
2018-06-18T09:34:50.294Z,2.60
2018-06-18T09:35:59.698Z,2.60
2018-06-18T09:37:04.985Z,2.90
2018-06-18T09:38:09.530Z,3.10
2018-06-18T09:39:14.365Z,2.52
2018-06-18T09:40:20.751Z,3.47
2018-06-18T09:41:25.368Z,2.52
2018-06-18T09:42:30.210Z,4.28
2018-06-18T09:43:41.839Z,3.15
2018-06-18T09:44:46.820Z,3.10
2018-06-18T09:45:53.957Z,3.40
2018-06-18T09:47:04.035Z,2.98
2018-06-18T09:48:13.229Z,2.75
2018-06-18T09:49:22.997Z,2.85
2018-06-18T09:50:33.785Z,2.60
2018-06-18T09:51:43.468Z,3.00
2018-06-18T09:52:53.150Z,2.47
2018-06-18T09:54:05.655Z,3.05
2018-06-18T09:55:18.490Z,2.42
2018-06-18T09:56:28.119Z,2.40
2018-06-18T09:57:38.094Z,4.00
2018-06-18T09:58:47.445Z,2.90
2018-06-18T09:59:56.892Z,2.52
2018-06-18T10:01:16.282Z,3.12
2018-06-18T10:02:21.863Z,3.45
2018-06-18T10:03:28.293Z,3.42
2018-06-18T10:04:35.992Z,2.83
2018-06-18T10:05:40.540Z,3.05
2018-06-18T10:06:47.953Z,3.00
2018-06-18T10:07:54.241Z,2.30
2018-06-18T10:09:08.382Z,3.05
2018-06-18T10:10:13.516Z,2.60
2018-06-18T10:11:18.961Z,3.72
2018-06-18T10:12:25.028Z,2.60
2018-06-18T10:13:30.359Z,3.40
2018-06-18T10:14:35.790Z,3.67
2018-06-18T10:15:40.608Z,3.37
2018-06-18T10:16:47.413Z,2.70
2018-06-18T10:17:56.636Z,3.52
2018-06-18T10:19:06.583Z,3.37
2018-06-18T10:20:20.577Z,2.95
2018-06-18T10:21:27.321Z,3.33
2018-06-18T10:22:34.401Z,4.10
2018-06-18T10:23:38.704Z,10.48
2018-06-18T10:24:44.591Z,7.22
2018-06-18T10:25:49.776Z,7.53
2018-06-18T10:26:54.491Z,6.47
2018-06-18T10:28:01.852Z,7.85
2018-06-18T10:29:07.834Z,8.15
2018-06-18T10:30:13.091Z,4.55
2018-06-18T10:31:21.495Z,5.20
2018-06-18T10:32:31.504Z,10.65
2018-06-18T10:33:41.982Z,11.80
2018-06-18T10:34:54.166Z,12.15
2018-06-18T10:36:05.349Z,6.72
2018-06-18T10:37:15.244Z,3.83
2018-06-18T10:38:25.480Z,4.10
2018-06-18T10:39:36.062Z,3.37
2018-06-18T10:40:45.739Z,3.50
2018-06-18T10:41:55.520Z,4.05
2018-06-18T10:43:05.951Z,5.37
2018-06-18T10:44:10.768Z,3.70
2018-06-18T10:45:18.363Z,4.00
2018-06-18T10:46:23.079Z,6.85
2018-06-18T10:47:27.925Z,4.50
2018-06-18T10:48:35.257Z,4.97
2018-06-18T10:49:40.227Z,2.67
2018-06-18T10:50:50.714Z,3.02
2018-06-18T10:51:56.450Z,3.45
2018-06-18T10:53:02.669Z,3.40
2018-06-18T10:54:07.693Z,3.25
2018-06-18T10:55:14.309Z,3.50
2018-06-18T10:56:20.321Z,3.58
2018-06-18T10:57:25.916Z,3.65
2018-06-18T10:58:34.765Z,4.75
2018-06-18T10:59:42.997Z,3.77
2018-06-18T11:00:56.998Z,3.65
2018-06-18T11:02:06.077Z,2.80
2018-06-18T11:03:13.928Z,2.83
2018-06-18T11:04:24.764Z,3.27
2018-06-18T11:05:35.630Z,2.55
2018-06-18T11:06:42.281Z,3.20
2018-06-18T11:07:47.132Z,3.40
2018-06-18T11:08:52.897Z,3.95
2018-06-18T11:10:01.698Z,3.70
2018-06-18T11:11:06.719Z,6.05
2018-06-18T11:12:11.580Z,6.70
2018-06-18T11:13:18.550Z,5.65
2018-06-18T11:14:23.905Z,5.62
2018-06-18T11:15:28.948Z,6.35
2018-06-18T11:16:35.332Z,7.58
2018-06-18T11:17:45.167Z,8.28
2018-06-18T11:18:54.968Z,6.65
2018-06-18T11:20:04.810Z,6.60
2018-06-18T11:21:14.533Z,10.60
2018-06-18T11:22:19.369Z,10.48
2018-06-18T11:23:29.605Z,6.78
2018-06-18T11:24:41.778Z,4.30
2018-06-18T11:25:52.630Z,3.55
2018-06-18T11:26:58.852Z,2.00
2018-06-18T11:28:05.037Z,2.45
2018-06-18T11:29:15.397Z,2.70
2018-06-18T11:30:23.479Z,3.60
2018-06-18T11:31:28.354Z,2.65
2018-06-18T11:32:41.827Z,2.80
2018-06-18T11:33:50.658Z,2.87
2018-06-18T11:34:55.440Z,2.75
2018-06-18T11:36:00.141Z,2.20
2018-06-18T11:37:05.387Z,2.35
2018-06-18T11:38:10.840Z,1.80
2018-06-18T11:39:15.498Z,2.30
2018-06-18T11:40:25.702Z,2.00
2018-06-18T11:41:30.341Z,2.12
2018-06-18T11:42:37.390Z,2.50
2018-06-18T11:43:42.399Z,2.08
2018-06-18T11:44:47.756Z,1.70
2018-06-18T11:45:54.769Z,1.98
2018-06-18T11:47:00.684Z,2.00
2018-06-18T11:48:27.464Z,2.50
2018-06-18T11:49:33.359Z,2.10
2018-06-18T11:50:41.574Z,1.82
2018-06-18T11:51:47.052Z,1.82
2018-06-18T11:52:52.898Z,1.70
2018-06-18T11:53:57.914Z,2.33
2018-06-18T11:55:06.123Z,1.62
2018-06-18T11:56:11.468Z,1.90
2018-06-18T11:57:17.536Z,2.00
2018-06-18T11:58:27.705Z,2.02
2018-06-18T11:59:37.225Z,2.30
2018-06-18T12:00:53.350Z,2.37
2018-06-18T12:02:07.674Z,1.65
2018-06-18T12:03:18.933Z,3.52
2018-06-18T12:04:30.927Z,2.72
2018-06-18T12:05:42.411Z,2.77
2018-06-18T12:06:53.389Z,2.20
2018-06-18T12:08:03.705Z,2.45
2018-06-18T12:09:15.390Z,1.60
2018-06-18T12:10:25.683Z,1.72
2018-06-18T12:11:48.953Z,3.85
2018-06-18T12:13:02.399Z,4.80
2018-06-18T12:14:35.975Z,3.42
2018-06-18T12:15:41.280Z,4.75
2018-06-18T12:16:51.687Z,4.60
2018-06-18T12:18:19.000Z,3.65
2018-06-18T12:19:43.684Z,1.92
2018-06-18T12:21:04.523Z,2.10
2018-06-18T12:23:42.510Z,2.10
2018-06-18T12:24:57.489Z,2.30
2018-06-18T12:26:04.939Z,2.27
2018-06-18T12:27:14.986Z,2.60
2018-06-18T12:28:23.757Z,3.10
2018-06-18T12:29:29.783Z,2.70
2018-06-18T12:30:37.408Z,2.70
2018-06-18T12:31:42.567Z,3.05
2018-06-18T12:34:55.508Z,2.40
2018-06-18T12:36:02.064Z,2.87
2018-06-18T12:37:07.825Z,2.70
2018-06-18T12:38:14.278Z,3.20
2018-06-18T12:39:19.566Z,3.62
2018-06-18T12:40:24.468Z,3.22
2018-06-18T12:41:31.763Z,2.70
2018-06-18T13:48:14.323Z,3.50
2018-06-18T13:49:20.346Z,2.90
2018-06-18T13:50:25.237Z,2.22
2018-06-18T13:52:10.301Z,5.75
2018-06-18T13:53:15.061Z,2.85
2018-06-18T13:54:21.265Z,3.47
2018-06-18T13:55:28.343Z,3.67
2018-06-18T13:56:33.850Z,3.00
2018-06-18T13:57:38.647Z,2.30
2018-06-18T13:58:43.910Z,2.65
2018-06-18T14:00:22.495Z,2.80
2018-06-18T14:01:41.635Z,2.72
2018-06-18T14:02:48.697Z,3.22
2018-06-18T14:03:53.240Z,3.35
2018-06-18T14:04:58.794Z,3.45
2018-06-18T14:06:04.256Z,2.12
2018-06-18T14:07:09.678Z,2.30
2018-06-18T14:08:20.635Z,2.50
2018-06-18T14:09:26.236Z,2.25
2018-06-18T14:10:30.885Z,2.30
2018-06-18T14:11:35.791Z,2.75
2018-06-18T14:12:44.558Z,2.40
2018-06-18T14:13:49.431Z,2.17
2018-06-18T14:14:54.539Z,2.27
2018-06-18T14:16:00.627Z,2.10
2018-06-18T14:17:10.327Z,1.90
2018-06-18T14:18:15.347Z,1.95
2018-06-18T14:19:27.206Z,1.80
2018-06-18T14:20:34.573Z,2.15
2018-06-18T14:21:39.931Z,1.42
2018-06-18T14:22:44.851Z,1.85
2018-06-18T14:23:50.957Z,1.85
2018-06-18T14:24:59.450Z,1.90
2018-06-18T14:26:57.909Z,2.10
2018-06-18T14:28:02.738Z,1.87
2018-06-18T14:29:12.503Z,1.52
2018-06-18T14:30:22.855Z,2.15
2018-06-18T14:31:33.222Z,1.87
2018-06-18T14:32:43.408Z,2.15
2018-06-18T14:33:56.161Z,2.17
2018-06-18T14:35:08.098Z,2.05
2018-06-18T14:36:19.640Z,4.33
2018-06-18T14:37:31.364Z,3.25
2018-06-18T14:38:42.379Z,4.55
2018-06-18T14:39:54.325Z,3.65
2018-06-18T14:41:16.860Z,2.75
2018-06-18T14:42:24.029Z,2.72
2018-06-18T14:43:28.903Z,2.90
2018-06-18T14:44:34.820Z,3.45
2018-06-18T14:45:41.531Z,2.50
2018-06-18T14:46:49.753Z,2.12
2018-06-18T14:47:55.469Z,2.08
2018-06-18T14:49:00.609Z,2.37
2018-06-18T14:50:06.941Z,2.00
2018-06-18T14:51:12.086Z,1.82
2018-06-18T14:52:18.752Z,1.85
2018-06-18T14:53:23.705Z,1.50
2018-06-18T14:54:28.499Z,2.00
2018-06-18T14:55:33.053Z,1.67
2018-06-18T14:56:40.003Z,1.82
2018-06-18T14:57:49.601Z,2.00
2018-06-18T14:59:10.570Z,1.72
2018-06-18T15:00:20.087Z,2.30
2018-06-18T15:01:29.562Z,2.17
2018-06-18T15:02:34.685Z,1.85
2018-06-18T15:03:39.315Z,1.90
2018-06-18T15:04:47.079Z,1.85
2018-06-18T15:05:51.739Z,1.80
2018-06-18T15:06:58.371Z,2.08
2018-06-18T15:08:04.114Z,4.50
2018-06-18T15:09:13.364Z,10.88
2018-06-18T15:10:18.962Z,8.00
2018-06-18T15:11:23.848Z,5.55
2018-06-18T15:12:31.743Z,5.10
2018-06-18T15:13:37.894Z,2.35
2018-06-18T15:14:42.609Z,2.37
2018-06-18T15:15:53.506Z,2.65
2018-06-18T15:17:01.487Z,2.30
2018-06-18T15:18:07.009Z,3.77
2018-06-18T15:19:16.541Z,4.00
2018-06-18T15:20:22.374Z,2.58
2018-06-18T15:21:28.893Z,12.88
2018-06-18T15:22:35.211Z,2.70
2018-06-18T15:23:41.579Z,2.15
2018-06-18T15:24:52.127Z,2.22
2018-06-18T15:26:00.636Z,4.33
2018-06-18T15:27:06.237Z,2.55
2018-06-18T15:28:11.684Z,3.17
2018-06-18T15:30:27.717Z,2.12
2018-06-18T15:31:36.669Z,2.77
2018-06-18T15:32:41.682Z,3.05
2018-06-18T15:33:48.117Z,3.17
2018-06-18T15:35:01.279Z,2.55
2018-06-18T15:36:06.759Z,2.58
2018-06-18T15:37:30.939Z,2.50
2018-06-18T15:38:36.946Z,2.00
2018-06-18T15:39:42.313Z,2.05
2018-06-18T15:40:48.636Z,1.90
2018-06-18T15:41:53.375Z,2.25
2018-06-18T15:42:58.621Z,4.58
2018-06-18T15:44:07.283Z,2.55
2018-06-18T15:45:16.461Z,2.20
2018-06-18T15:46:21.735Z,2.35
2018-06-18T15:47:26.366Z,3.42
2018-06-18T15:48:34.490Z,2.25
2018-06-18T15:49:40.591Z,2.58
2018-06-18T15:50:48.525Z,1.75
2018-06-18T15:51:55.383Z,2.77
2018-06-18T15:53:00.575Z,4.58
2018-06-18T15:54:07.958Z,3.15
2018-06-18T15:55:15.383Z,2.50
2018-06-18T15:56:21.800Z,3.02
2018-06-18T15:57:31.602Z,2.70
2018-06-18T15:58:37.920Z,2.60
2018-06-18T15:59:45.673Z,2.02
2018-06-18T16:00:50.600Z,2.20
2018-06-18T16:01:57.040Z,1.90
2018-06-18T16:03:02.757Z,2.10
2018-06-18T16:04:15.667Z,1.85
2018-06-18T16:05:20.777Z,2.20
2018-06-18T16:06:26.997Z,2.05
2018-06-18T16:07:32.545Z,2.75
2018-06-18T16:08:37.466Z,2.42
2018-06-18T16:09:46.502Z,1.90
2018-06-18T16:10:51.842Z,2.15
2018-06-18T16:11:57.348Z,2.08